Time;durP1;ratioP1;P1;durP2;ratioP2;P2;SDS_P1;SDS_P2;PMS_P1;PMS_P2;Temp;Humidity;BMP_temperature;BMP_pressure;BME280_temperature;BME280_humidity;BME280_pressure;Samples;Min_cycle;Max_cycle;Signal;HPM_P1;HPM_P2
2022/08/30 00:02:53;;;;;;;10.40;2.88;;;18.90;99.90;;;18.49;91.84;101195.56;5100439;23;20036;-75
2022/08/30 00:04:54;;;;;;;7.30;2.40;;;18.90;99.90;;;18.38;91.65;101175.56;5096405;23;20009;-75
2022/08/30 00:06:55;;;;;;;5.55;2.58;;;18.90;99.90;;;18.34;91.96;101179.63;5096816;23;20346;-75
2022/08/30 00:08:56;;;;;;;6.40;2.28;;;18.90;99.90;;;18.19;92.54;101160.22;5096667;23;20009;-75
2022/08/30 00:10:57;;;;;;;8.35;2.58;;;18.80;99.90;;;18.15;92.84;101170.50;5122988;23;20433;-75
2022/08/30 00:12:59;;;;;;;11.05;2.70;;;18.80;99.90;;;18.33;93.02;101204.72;5072406;23;20501;-75
2022/08/30 00:15:00;;;;;;;9.00;2.67;;;18.80;99.90;;;18.31;93.06;101201.38;5096812;23;20005;-75
2022/08/30 00:17:01;;;;;;;7.35;2.20;;;18.70;99.90;;;18.16;92.81;101176.63;5124093;23;20108;-75
2022/08/30 00:19:02;;;;;;;7.82;2.58;;;18.70;99.90;;;18.05;93.00;101164.66;5124254;23;20004;-75
2022/08/30 00:21:05;;;;;;;6.90;2.30;;;18.70;99.90;;;18.12;93.98;101175.41;5098075;23;20421;-75
2022/08/30 00:23:06;;;;;;;8.40;2.63;;;18.70;99.90;;;18.04;93.85;101163.00;5124466;23;20012;-75
2022/08/30 00:25:08;;;;;;;8.68;2.53;;;18.70;99.90;;;18.08;93.69;101176.78;5098324;23;20465;-75
2022/08/30 00:27:08;;;;;;;11.65;3.55;;;18.70;99.90;;;18.06;94.55;101176.16;5124352;23;20065;-75
2022/08/30 00:29:09;;;;;;;5.93;2.17;;;18.70;99.90;;;17.99;94.97;101172.63;5124651;23;20035;-75
2022/08/30 00:31:11;;;;;;;4.60;2.28;;;18.60;99.90;;;18.12;95.33;101194.91;5124871;23;20001;-75
2022/08/30 00:33:14;;;;;;;4.85;2.53;;;18.60;99.90;;;18.02;95.73;101183.72;5097881;23;20315;-75
2022/08/30 00:35:17;;;;;;;6.95;2.30;;;18.60;99.90;;;18.04;95.98;101199.56;5098245;23;20072;-75
2022/08/30 00:37:19;;;;;;;7.25;3.05;;;18.50;99.90;;;17.81;96.27;101166.91;5124666;23;20005;-75
2022/08/30 00:39:22;;;;;;;9.75;3.55;;;18.50;99.90;;;17.84;96.73;101182.53;5124349;23;20076;-75
2022/08/30 00:41:23;;;;;;;6.15;2.42;;;18.40;99.90;;;17.79;96.75;101179.63;5124364;23;20323;-75
2022/08/30 00:43:29;;;;;;;12.98;3.20;;;18.40;99.90;;;17.74;96.46;101174.06;5123034;23;20012;-75
2022/08/30 00:45:35;;;;;;;7.05;2.80;;;18.40;99.90;;;17.90;96.32;101198.63;5124207;23;20015;-75
2022/08/30 00:47:36;;;;;;;6.10;2.53;;;18.40;99.90;;;17.74;96.36;101174.06;5098233;23;20469;-75
2022/08/30 00:49:41;;;;;;;7.15;2.80;;;18.40;99.90;;;17.91;96.32;101202.13;5074205;23;20014;-74
2022/08/30 00:51:42;;;;;;;8.25;2.72;;;18.30;99.90;;;17.79;95.97;101180.47;5098462;23;20009;-75
2022/08/30 00:53:53;;;;;;;9.75;2.55;;;18.30;99.90;;;17.91;95.80;101200.28;5073845;23;20010;-75
2022/08/30 00:55:56;;;;;;;4.72;2.33;;;18.30;99.90;;;17.88;96.05;101200.66;5097829;23;20410;-75
2022/08/30 00:58:04;;;;;;;5.65;2.30;;;18.30;99.90;;;17.88;96.29;101192.66;5124150;23;20012;-75
2022/08/30 01:00:08;;;;;;;8.45;2.80;;;18.30;99.90;;;17.85;96.49;101194.88;5124246;23;20357;-75
2022/08/30 01:02:10;;;;;;;8.35;2.30;;;18.30;99.90;;;17.82;96.79;101200.59;5098598;23;20005;-75
2022/08/30 01:04:13;;;;;;;9.52;2.95;;;18.30;99.90;;;17.68;96.49;101175.66;5124114;23;20027;-75
2022/08/30 01:06:15;;;;;;;8.70;3.22;;;18.30;99.90;;;17.68;96.51;101181.78;5124181;23;20013;-75
2022/08/30 01:08:19;;;;;;;9.75;3.30;;;18.30;99.90;;;17.69;96.48;101185.28;5124075;23;20013;-74
2022/08/30 01:10:20;;;;;;;8.25;2.58;;;18.30;99.90;;;17.83;96.40;101202.25;5124161;23;20001;-75
2022/08/30 01:12:22;;;;;;;7.22;2.40;;;18.30;99.90;;;17.65;96.06;101176.03;5124019;23;20005;-75
2022/08/30 01:14:23;;;;;;;9.55;2.95;;;18.30;99.90;;;17.69;95.62;101175.44;5124118;23;20001;-75
2022/08/30 01:16:25;;;;;;;5.55;2.65;;;18.30;99.90;;;17.65;95.66;101168.84;5097859;23;20013;-75
2022/08/30 01:18:27;;;;;;;8.40;2.85;;;18.30;99.90;;;17.71;95.48;101174.44;5097634;23;20013;-75
2022/08/30 01:20:43;;;;;;;6.93;2.70;;;18.30;99.90;;;17.83;95.64;101196.94;5073214;23;20108;-75
2022/08/30 01:22:49;;;;;;;6.40;2.88;;;18.30;99.90;;;17.78;96.23;101188.66;5074256;23;20010;-75
2022/08/30 01:24:54;;;;;;;5.00;2.50;;;18.30;99.90;;;17.61;96.44;101177.44;5097894;23;20438;-75
2022/08/30 01:26:56;;;;;;;6.05;2.78;;;18.30;99.90;;;17.56;96.35;101169.97;5097262;23;20009;-75
2022/08/30 01:29:04;;;;;;;9.57;3.47;;;18.20;99.90;;;17.72;96.50;101194.75;5124111;23;20012;-74
2022/08/30 01:31:05;;;;;;;8.38;2.70;;;18.20;99.90;;;17.52;96.98;101176.69;5098339;23;20006;-75
2022/08/30 01:33:07;;;;;;;6.68;2.63;;;18.20;99.90;;;17.59;96.96;101184.81;5123915;23;20131;-75
2022/08/30 01:35:12;;;;;;;8.35;3.00;;;18.20;99.90;;;17.55;97.15;101192.38;5097783;23;20002;-75
2022/08/30 01:37:27;;;;;;;7.40;2.58;;;18.10;99.90;;;17.42;97.42;101176.19;5124090;23;20501;-75
2022/08/30 01:39:29;;;;;;;9.43;3.33;;;18.10;99.90;;;17.48;97.84;101196.75;5098407;23;20353;-75
2022/08/30 01:41:35;;;;;;;6.82;2.40;;;18.10;99.90;;;17.42;97.93;101186.84;5072972;23;20093;-75
2022/08/30 01:43:36;;;;;;;7.40;2.88;;;18.00;99.90;;;17.38;97.86;101185.56;5097779;23;20012;-75
2022/08/30 01:45:37;;;;;;;7.63;3.17;;;18.00;99.90;;;17.30;98.16;101169.69;5097602;23;20006;-75
2022/08/30 01:47:39;;;;;;;9.93;2.50;;;18.00;99.90;;;17.37;98.55;101185.78;5123505;23;20012;-75
2022/08/30 01:49:40;;;;;;;8.10;3.13;;;17.90;99.90;;;17.37;98.80;101186.59;5097797;23;20005;-75
2022/08/30 01:51:42;;;;;;;5.25;2.90;;;18.00;99.90;;;17.31;98.91;101171.34;5097456;23;20036;-75
2022/08/30 01:53:44;;;;;;;10.02;3.38;;;18.00;99.90;;;17.40;98.63;101198.72;5097607;23;20009;-75
2022/08/30 01:55:45;;;;;;;13.68;3.05;;;17.90;99.90;;;17.46;98.75;101209.47;5097690;23;20001;-75
2022/08/30 01:57:48;;;;;;;7.57;3.35;;;17.90;99.90;;;17.34;98.81;101186.16;5122371;23;20005;-75
2022/08/30 01:59:49;;;;;;;9.30;2.97;;;17.90;99.90;;;17.38;98.98;101201.56;5073593;23;20006;-75
2022/08/30 02:01:50;;;;;;;7.72;3.20;;;17.90;99.90;;;17.37;99.04;101199.94;5097741;23;20056;-74
2022/08/30 02:03:55;;;;;;;5.95;2.70;;;17.90;99.90;;;17.39;98.96;101205.91;5097282;23;20001;-75
2022/08/30 02:05:56;;;;;;;9.77;3.40;;;17.90;99.90;;;17.21;99.42;101176.16;5123903;23;20088;-75
2022/08/30 02:07:57;;;;;;;7.30;2.47;;;17.80;99.90;;;17.25;99.68;101181.94;5123676;23;20005;-75
2022/08/30 02:09:58;;;;;;;7.80;3.28;;;17.80;99.90;;;17.31;99.77;101202.53;5097493;23;20029;-75
2022/08/30 02:11:59;;;;;;;7.10;3.58;;;17.80;99.90;;;17.26;99.59;101205.78;5097795;23;20022;-75
2022/08/30 02:14:00;;;;;;;8.70;2.47;;;17.80;99.90;;;17.16;99.57;101189.25;5123604;23;20008;-75
2022/08/30 02:16:01;;;;;;;7.25;3.08;;;17.80;99.90;;;17.12;99.78;101179.94;5123612;23;20005;-75
2022/08/30 02:18:02;;;;;;;9.23;3.80;;;17.80;99.90;;;17.15;99.90;101187.56;5097252;23;20056;-75
2022/08/30 02:20:05;;;;;;;5.88;2.70;;;17.70;99.90;;;17.19;99.87;101196.03;5123375;23;20468;-75
2022/08/30 02:22:06;;;;;;;7.05;2.78;;;17.70;99.90;;;17.01;100.00;101169.78;5097672;23;20040;-75
2022/08/30 02:24:07;;;;;;;9.48;2.97;;;17.70;99.90;;;16.99;100.00;101171.81;5123969;23;20016;-75
2022/08/30 02:26:09;;;;;;;6.03;3.05;;;17.60;99.90;;;17.00;100.00;101166.28;5072733;23;20434;-75
2022/08/30 02:28:10;;;;;;;8.80;2.85;;;17.70;99.90;;;17.06;100.00;101180.69;5097282;23;20053;-75
2022/08/30 02:30:12;;;;;;;4.88;2.72;;;17.70;99.90;;;16.95;100.00;101174.03;5097519;23;20421;-75
2022/08/30 02:32:13;;;;;;;8.02;3.15;;;17.60;99.90;;;17.06;100.00;101191.38;5072759;23;20002;-75
2022/08/30 02:34:17;;;;;;;6.57;3.33;;;17.60;99.90;;;17.06;100.00;101200.19;5123495;23;20001;-75
2022/08/30 02:36:19;;;;;;;;;;;17.60;99.90;;;16.85;100.00;101170.00;5097701;23;20009;-75
2022/08/30 02:38:22;;;;;;;4.60;2.17;;;17.60;99.90;;;16.91;100.00;101188.72;5097097;23;19948;-75
2022/08/30 02:40:23;;;;;;;8.18;3.45;;;17.50;99.90;;;16.88;100.00;101177.59;5097435;23;20005;-75
2022/08/30 02:42:24;;;;;;;11.45;3.95;;;17.50;99.90;;;16.89;100.00;101179.28;5097502;23;20347;-75
2022/08/30 02:44:25;;;;;;;10.00;2.67;;;17.50;99.90;;;16.95;100.00;101194.53;5123401;23;20012;-75
2022/08/30 02:46:27;;;;;;;8.57;3.25;;;17.50;99.90;;;16.94;100.00;101198.19;5097288;23;20016;-75
2022/08/30 02:48:28;;;;;;;8.35;2.80;;;17.50;99.90;;;16.88;100.00;101183.78;5122981;23;20009;-75
2022/08/30 02:50:30;;;;;;;5.97;2.83;;;17.40;99.90;;;16.80;100.00;101172.41;5123261;23;20005;-75
2022/08/30 02:52:31;;;;;;;12.15;2.92;;;17.40;99.90;;;16.75;100.00;101174.78;5123396;23;20005;-75
2022/08/30 02:54:32;;;;;;;6.38;2.92;;;17.40;99.90;;;16.90;100.00;101199.59;5123269;23;20024;-75
2022/08/30 02:56:33;;;;;;;5.28;2.97;;;17.40;99.90;;;16.86;100.00;101187.63;5123238;23;20036;-75
2022/08/30 02:58:35;;;;;;;8.25;3.00;;;17.40;99.90;;;16.88;100.00;101199.75;5123277;23;20005;-75
2022/08/30 03:00:36;;;;;;;8.90;3.38;;;17.40;99.90;;;16.74;100.00;101178.47;5097147;23;20057;-75
2022/08/30 03:02:39;;;;;;;9.52;3.30;;;17.30;99.90;;;16.68;100.00;101165.88;5096924;23;20017;-75
2022/08/30 03:04:43;;;;;;;7.75;3.40;;;17.30;99.90;;;16.75;100.00;101177.47;5123247;23;20005;-75
2022/08/30 03:06:43;;;;;;;8.65;3.20;;;17.40;99.90;;;16.75;100.00;101188.13;5097032;23;20005;-75
2022/08/30 03:08:44;;;;;;;8.93;2.67;;;17.30;99.90;;;16.63;100.00;101168.28;5123259;23;20005;-74
2022/08/30 03:10:45;;;;;;;8.98;3.13;;;17.30;99.90;;;16.66;100.00;101175.91;5123195;23;20011;-75
2022/08/30 03:12:46;;;;;;;10.27;3.92;;;17.30;99.90;;;16.71;100.00;101185.00;5097523;23;20036;-75
2022/08/30 03:14:47;;;;;;;10.38;3.45;;;17.30;99.90;;;16.70;100.00;101171.84;5123364;23;20005;-75
2022/08/30 03:16:48;;;;;;;10.57;3.50;;;17.30;99.90;;;16.75;100.00;101188.94;5097058;23;20060;-75
2022/08/30 03:18:49;;;;;;;5.20;3.25;;;17.30;99.90;;;16.63;100.00;101162.97;5096646;23;20014;-75
2022/08/30 03:20:50;;;;;;;6.07;2.63;;;17.30;99.90;;;16.65;100.00;101171.56;5123085;23;20327;-74
2022/08/30 03:22:52;;;;;;;8.85;3.00;;;17.30;99.90;;;16.64;100.00;101172.56;5097083;23;20009;-75
2022/08/30 03:24:56;;;;;;;8.45;3.08;;;17.20;99.90;;;16.68;100.00;101177.38;5097448;23;20386;-75
2022/08/30 03:26:57;;;;;;;7.43;2.95;;;17.20;99.90;;;16.66;100.00;101175.91;5122905;23;20020;-75
2022/08/30 03:28:58;;;;;;;8.80;2.95;;;17.30;99.90;;;16.67;100.00;101174.88;5123056;23;20061;-75
2022/08/30 04:09:26;;;;;;;6.25;2.90;;;17.30;99.90;;;16.39;100.00;101207.47;4232317;27;20433;-75
2022/08/30 04:11:27;;;;;;;7.78;3.20;;;17.00;99.90;;;16.36;100.00;101201.69;4214719;28;20032;-76
2022/08/30 04:13:28;;;;;;;7.32;3.00;;;17.00;99.90;;;16.30;100.00;101192.59;4215623;28;20057;-75
2022/08/30 04:15:29;;;;;;;6.13;2.90;;;16.90;99.90;;;16.27;100.00;101189.47;4215657;28;20032;-75
2022/08/30 04:17:31;;;;;;;10.02;3.40;;;16.90;99.90;;;16.19;100.00;101193.00;4215358;28;20072;-75
2022/08/30 04:19:32;;;;;;;8.05;4.07;;;16.90;99.90;;;16.15;100.00;101193.56;4214385;28;20082;-75
2022/08/30 04:21:33;;;;;;;9.63;2.85;;;16.80;99.90;;;16.13;100.00;101180.44;4210696;28;20024;-75
2022/08/30 04:23:34;;;;;;;6.80;3.88;;;16.80;99.90;;;16.26;100.00;101212.59;4215797;28;20032;-75
2022/08/30 04:25:37;;;;;;;6.47;3.20;;;16.80;99.90;;;16.23;100.00;101206.78;4215853;28;20032;-76
2022/08/30 04:27:38;;;;;;;6.65;3.53;;;16.80;99.90;;;16.14;100.00;101203.38;4214832;28;20017;-76
2022/08/30 04:29:39;;;;;;;7.93;3.25;;;16.80;99.90;;;16.14;100.00;101200.72;4210426;28;20078;-75
2022/08/30 04:31:40;;;;;;;8.10;3.10;;;16.80;99.90;;;16.20;100.00;101213.31;4215713;28;20036;-75
2022/08/30 04:33:42;;;;;;;11.15;3.70;;;16.70;99.90;;;16.24;100.00;101219.94;4214377;28;20020;-75
2022/08/30 04:35:46;;;;;;;7.63;3.88;;;16.70;99.90;;;16.14;100.00;101210.53;4215779;28;20396;-75
2022/08/30 04:37:47;;;;;;;6.32;3.00;;;16.70;99.90;;;16.07;100.00;101199.78;4231380;28;20028;-75
2022/08/30 04:39:48;;;;;;;6.57;2.65;;;16.70;99.90;;;16.07;100.00;101206.97;4214351;28;20033;-75
2022/08/30 04:41:49;;;;;;;10.77;4.05;;;16.60;99.90;;;15.97;100.00;101202.72;4202159;28;20025;-75
2022/08/30 04:43:50;;;;;;;8.02;3.05;;;16.60;99.90;;;15.99;100.00;101206.00;4206622;28;20084;-75
2022/08/30 04:45:52;;;;;;;7.50;3.58;;;16.60;99.90;;;16.07;100.00;101212.28;4215690;28;20028;-75
2022/08/30 04:47:53;;;;;;;8.05;3.05;;;16.60;99.90;;;16.02;100.00;101216.31;4197144;28;20025;-75
2022/08/30 04:49:54;;;;;;;8.30;3.60;;;16.60;99.90;;;16.11;100.00;101227.69;4202952;28;20381;-75
2022/08/30 04:51:55;;;;;;;8.68;2.80;;;16.60;99.90;;;16.09;100.00;101227.06;4215567;28;20056;-75
2022/08/30 04:53:56;;;;;;;8.77;3.28;;;16.60;99.90;;;15.96;100.00;101209.03;4215465;28;20037;-75
2022/08/30 04:55:57;;;;;;;5.00;3.05;;;16.60;99.90;;;15.97;100.00;101209.88;4197563;28;20572;-75
2022/08/30 04:57:58;;;;;;;7.78;3.05;;;16.60;99.90;;;15.95;100.00;101202.03;4215459;28;20021;-75
2022/08/30 04:59:59;;;;;;;8.60;3.60;;;16.60;99.90;;;16.05;100.00;101231.06;4214391;28;20523;-75
2022/08/30 05:02:00;;;;;;;7.00;2.75;;;16.60;99.90;;;16.00;100.00;101226.31;4214237;28;20020;-75
2022/08/30 05:04:03;;;;;;;7.13;3.33;;;16.60;99.90;;;15.94;100.00;101216.38;4228051;28;20027;-75
2022/08/30 05:06:04;;;;;;;5.40;3.10;;;16.60;99.90;;;15.93;100.00;101216.53;4215424;28;20434;-75
2022/08/30 05:08:17;;;;;;;8.52;3.03;;;16.50;99.90;;;15.99;100.00;101234.44;4213783;28;20224;-75
2022/08/30 05:10:18;;;;;;;9.13;3.58;;;16.50;99.90;;;15.75;100.00;101202.72;4204445;28;20032;-75
2022/08/30 05:12:19;;;;;;;7.63;2.67;;;16.50;99.90;;;15.94;100.00;101242.16;4203935;28;20373;-75
2022/08/30 05:14:20;;;;;;;8.77;3.33;;;16.40;99.90;;;15.79;100.00;101225.31;4204089;28;20025;-75
2022/08/30 05:16:21;;;;;;;9.35;3.15;;;16.40;99.90;;;15.77;100.00;101230.00;4211924;28;20104;-75
2022/08/30 05:18:22;;;;;;;7.05;3.40;;;16.40;99.90;;;15.88;100.00;101251.69;4199115;28;20081;-75
2022/08/30 05:20:22;;;;;;;9.05;3.83;;;16.40;99.90;;;15.68;100.00;101223.06;4202744;28;20039;-75
2022/08/30 05:22:23;;;;;;;9.93;3.08;;;16.40;99.90;;;15.84;100.00;101254.84;4204121;28;20029;-75
2022/08/30 05:24:25;;;;;;;7.47;4.03;;;16.40;99.90;;;15.80;100.00;101245.59;4202850;28;20078;-75
2022/08/30 05:26:30;;;;;;;7.35;3.30;;;16.40;99.90;;;15.80;100.00;101248.25;4203779;28;20024;-75
2022/08/30 05:28:31;;;;;;;10.48;3.47;;;16.40;99.90;;;15.73;100.00;101241.97;4202436;28;20040;-75
2022/08/30 05:30:35;;;;;;;8.60;3.50;;;16.40;99.90;;;15.77;100.00;101246.75;4191160;28;20085;-75
2022/08/30 05:32:36;;;;;;;5.80;2.92;;;16.40;99.90;;;15.76;100.00;101244.28;4202356;28;20035;-75
2022/08/30 05:34:37;;;;;;;11.32;3.95;;;16.40;99.90;;;15.89;100.00;101263.97;4202571;28;20033;-75
2022/08/30 05:36:39;;;;;;;7.90;3.08;;;16.40;99.90;;;15.80;100.00;101257.03;4203643;28;20036;-75
2022/08/30 05:38:40;;;;;;;7.28;3.15;;;16.40;99.90;;;15.76;100.00;101246.94;4202529;28;20107;-75
2022/08/30 05:40:42;;;;;;;9.07;3.35;;;16.40;99.90;;;15.79;100.00;101258.06;4195492;28;20047;-75
2022/08/30 05:42:45;;;;;;;8.63;3.10;;;16.40;99.90;;;15.81;100.00;101260.53;4185889;28;20025;-75
2022/08/30 05:44:53;;;;;;;8.43;3.00;;;16.40;99.90;;;15.84;100.00;101271.66;4200769;28;20028;-75
2022/08/30 05:46:54;;;;;;;7.07;3.40;;;16.40;99.90;;;15.76;100.00;101257.59;4191949;28;20020;-75
2022/08/30 05:48:56;;;;;;;7.15;3.22;;;16.40;99.90;;;15.77;100.00;101262.72;4203197;28;20484;-76
2022/08/30 05:51:08;;;;;;;9.35;2.97;;;16.40;99.90;;;15.87;100.00;101273.97;4203582;28;20035;-75
2022/08/30 05:53:09;;;;;;;6.95;3.08;;;16.40;99.90;;;15.73;100.00;101255.28;4202576;28;20028;-76
2022/08/30 05:55:11;;;;;;;7.55;3.28;;;16.40;99.90;;;15.74;100.00;101247.09;4202321;28;20400;-75
2022/08/30 05:57:12;;;;;;;11.85;4.03;;;16.40;99.90;;;15.75;100.00;101263.91;4203379;28;20064;-75
2022/08/30 05:59:14;;;;;;;5.03;2.95;;;16.40;99.90;;;15.87;100.00;101287.25;4202123;28;20036;-75
2022/08/30 06:01:30;;;;;;;7.28;3.65;;;16.40;99.90;;;15.77;100.00;101259.25;4185757;28;20048;-75
2022/08/30 06:03:31;;;;;;;8.27;3.08;;;16.40;99.90;;;15.80;100.00;101258.91;4201994;28;20036;-75
2022/08/30 06:05:32;;;;;;;7.65;3.13;;;16.50;99.90;;;15.98;100.00;101294.00;4202032;28;20052;-75
2022/08/30 06:07:33;;;;;;;5.82;3.28;;;16.50;99.90;;;15.87;100.00;101270.47;4199914;28;20036;-76
2022/08/30 06:09:34;;;;;;;8.77;3.08;;;16.50;99.90;;;15.91;100.00;101279.75;4192823;28;20028;-75
2022/08/30 06:11:36;;;;;;;9.05;3.50;;;16.50;99.90;;;15.87;100.00;101265.16;4202055;28;20096;-75
2022/08/30 06:13:38;;;;;;;9.55;3.13;;;16.50;99.90;;;15.96;100.00;101280.88;4201822;28;20021;-75
2022/08/30 06:15:39;;;;;;;7.30;2.92;;;16.60;99.90;;;15.96;100.00;101282.69;4202920;28;20039;-76
2022/08/30 06:17:41;;;;;;;4.72;2.40;;;16.60;99.90;;;15.99;100.00;101274.38;4202919;28;20017;-75
2022/08/30 06:19:42;;;;;;;8.63;3.20;;;16.60;99.90;;;15.91;100.00;101261.13;4202001;28;20032;-75
2022/08/30 06:21:47;;;;;;;7.75;3.13;;;16.60;99.90;;;16.00;100.00;101268.06;4201978;28;20021;-75
2022/08/30 06:23:49;;;;;;;8.02;3.30;;;16.60;99.90;;;16.07;100.00;101282.28;4202869;28;20075;-75
2022/08/30 06:25:50;;;;;;;5.72;2.95;;;16.70;99.90;;;16.19;100.00;101299.47;4201435;28;20103;-75
2022/08/30 06:27:51;;;;;;;8.85;3.38;;;16.70;99.90;;;16.07;100.00;101281.47;4194844;28;20036;-75
2022/08/30 06:29:53;;;;;;;5.45;2.88;;;16.70;99.90;;;16.18;100.00;101295.19;4202782;28;20029;-75
2022/08/30 06:31:56;;;;;;;8.75;3.50;;;16.80;99.90;;;16.19;100.00;101283.50;4201591;28;20539;-75
2022/08/30 06:33:57;;;;;;;7.38;2.85;;;16.80;99.90;;;16.22;100.00;101291.13;4192717;28;20039;-75
2022/08/30 06:36:14;;;;;;;11.18;3.05;;;16.90;99.90;;;16.34;100.00;101303.03;4218429;28;20131;-75
2022/08/30 06:38:15;;;;;;;11.13;3.72;;;16.90;99.90;;;16.38;100.00;101300.81;4201364;28;20078;-75
2022/08/30 06:40:19;;;;;;;8.73;3.10;;;17.00;99.90;;;16.38;100.00;101291.00;4189746;28;20029;-77
2022/08/30 06:42:20;;;;;;;7.00;2.88;;;17.00;99.90;;;16.48;99.90;101294.25;4202590;28;20024;-77
2022/08/30 06:44:21;;;;;;;7.15;2.67;;;17.10;99.90;;;16.54;99.49;101287.41;4201819;28;20119;-77
2022/08/30 06:46:26;;;;;;;5.85;3.10;;;17.20;99.90;;;16.66;98.97;101298.44;4202267;28;20388;-77
2022/08/30 06:48:27;;;;;;;10.57;3.38;;;17.20;99.90;;;16.66;98.56;101290.44;4184535;28;20056;-77
2022/08/30 06:50:30;;;;;;;9.13;3.33;;;17.30;99.90;;;16.81;98.09;101318.78;4193258;28;20029;-77
2022/08/30 06:52:31;;;;;;;9.88;3.75;;;17.40;99.90;;;16.71;97.72;101290.72;4201321;28;20522;-77
2022/08/30 06:54:32;;;;;;;9.38;3.47;;;17.40;99.90;;;16.80;97.23;101297.63;4202394;28;20025;-77
2022/08/30 06:56:33;;;;;;;8.32;3.47;;;17.50;99.90;;;16.87;97.13;101301.22;4202432;28;20028;-77
2022/08/30 06:58:37;;;;;;;6.22;3.15;;;17.50;99.90;;;16.96;96.58;101300.94;4202260;28;20021;-77
2022/08/30 07:00:40;;;;;;;4.68;2.70;;;17.60;99.90;;;17.08;96.22;101307.44;4202338;28;20032;-77
2022/08/30 07:02:42;;;;;;;10.07;3.40;;;17.70;99.90;;;17.14;95.68;101308.56;4201980;28;20028;-77
2022/08/30 07:04:43;;;;;;;4.63;2.53;;;17.70;99.90;;;17.10;95.51;101291.28;4201331;28;20028;-77
2022/08/30 07:06:44;;;;;;;6.70;3.00;;;17.80;99.90;;;17.27;95.50;101299.91;4202392;28;20055;-77
2022/08/30 07:08:46;;;;;;;5.95;2.65;;;17.90;99.90;;;17.36;95.08;101306.78;4189252;28;20045;-77
2022/08/30 07:10:47;;;;;;;10.25;3.22;;;18.00;99.90;;;17.41;94.21;101301.75;4200966;28;20039;-77
2022/08/30 07:12:48;;;;;;;5.30;3.40;;;18.00;99.90;;;17.48;93.62;101308.78;4202533;28;20099;-77
2022/08/30 07:14:49;;;;;;;5.90;2.78;;;18.10;99.90;;;17.61;93.45;101314.31;4200860;28;20029;-77
2022/08/30 07:16:50;;;;;;;5.13;2.30;;;18.20;99.90;;;17.68;92.57;101306.41;4202232;28;20032;-77
2022/08/30 07:18:53;;;;;;;5.38;3.08;;;18.30;99.90;;;17.72;91.90;101306.81;4201327;28;20016;-77
2022/08/30 07:20:54;;;;;;;5.10;2.55;;;18.30;99.90;;;17.84;91.40;101310.66;4200909;28;20032;-77
2022/08/30 07:22:55;;;;;;;8.20;2.83;;;18.40;99.90;;;17.97;90.84;101322.31;4202004;28;20035;-77
2022/08/30 07:24:56;;;;;;;8.40;3.20;;;18.50;99.90;;;18.12;90.35;101330.25;4200719;28;20484;-77
2022/08/30 07:26:57;;;;;;;7.22;3.60;;;18.60;99.90;;;18.18;88.15;101313.47;4202163;28;20028;-77
2022/08/30 07:28:58;;;;;;;6.63;2.85;;;18.70;99.90;;;18.29;87.25;101320.97;4184397;28;20035;-77
2022/08/30 07:30:59;;;;;;;6.68;3.03;;;18.80;99.90;;;18.46;86.84;101325.00;4201996;28;20534;-77
2022/08/30 07:33:00;;;;;;;8.07;2.78;;;18.90;99.90;;;18.49;86.68;101310.47;4201353;28;20029;-77
2022/08/30 07:35:01;;;;;;;6.18;2.58;;;19.00;99.90;;;18.51;87.74;101306.59;4201440;28;20066;-77
2022/08/30 07:37:02;;;;;;;6.28;2.33;;;19.10;99.90;;;18.61;87.61;101309.75;4184130;28;20025;-77
2022/08/30 07:39:05;;;;;;;5.35;2.60;;;19.10;99.90;;;18.59;86.27;101306.44;4200691;28;20484;-77
2022/08/30 07:41:06;;;;;;;5.80;2.72;;;19.20;99.90;;;18.68;87.61;101304.44;4200566;28;20033;-77
2022/08/30 07:43:07;;;;;;;5.63;3.05;;;19.20;99.90;;;18.67;84.17;101314.31;4200497;28;20031;-77
2022/08/30 07:45:09;;;;;;;6.47;2.70;;;19.30;99.90;;;18.69;82.26;101292.75;4201887;28;20056;-77
2022/08/30 07:47:11;;;;;;;7.78;3.15;;;19.30;99.90;;;18.86;82.40;101318.16;4200579;28;20055;-77
2022/08/30 07:49:11;;;;;;;9.55;3.25;;;19.40;99.90;;;18.92;82.61;101312.00;4197070;28;20512;-77
2022/08/30 07:51:17;;;;;;;7.78;2.88;;;19.40;99.90;;;18.97;83.12;101308.72;4217383;28;20032;-77
2022/08/30 07:53:18;;;;;;;7.30;2.92;;;19.50;99.90;;;19.03;83.63;101307.94;4200232;28;20033;-77
2022/08/30 07:55:19;;;;;;;3.72;2.30;;;19.60;99.90;;;19.15;84.45;101314.38;4194089;28;20020;-77
2022/08/30 07:57:20;;;;;;;5.00;2.50;;;19.70;99.90;;;19.15;83.38;101293.00;4197295;28;20028;-77
2022/08/30 07:59:22;;;;;;;8.10;2.97;;;19.70;99.90;;;19.20;79.19;101301.28;4201775;28;20036;-77
2022/08/30 08:01:23;;;;;;;5.53;2.70;;;19.80;99.90;;;19.33;79.72;101315.53;4200596;28;20032;-77
2022/08/30 08:03:28;;;;;;;7.95;3.22;;;19.80;99.90;;;19.40;78.52;101315.59;4183669;28;20025;-77
2022/08/30 08:05:29;;;;;;;8.05;2.75;;;19.90;99.90;;;19.54;77.32;101322.63;4200341;28;20036;-77
2022/08/30 08:07:31;;;;;;;4.57;2.70;;;20.10;99.90;;;19.63;77.29;101332.13;4197852;28;20104;-77
2022/08/30 08:09:34;;;;;;;5.88;2.55;;;20.10;99.90;;;19.52;78.38;101314.00;4190147;28;20040;-78
2022/08/30 08:11:36;;;;;;;8.13;2.65;;;20.20;99.90;;;19.57;77.07;101310.69;4200627;28;20057;-77
2022/08/30 08:13:37;;;;;;;6.57;2.45;;;20.20;99.90;;;19.79;76.83;101341.66;4200534;28;20112;-78
2022/08/30 08:15:38;;;;;;;5.78;2.53;;;20.30;99.90;;;19.84;75.79;101333.84;4200607;28;20400;-78
2022/08/30 08:17:39;;;;;;;7.25;2.30;;;20.40;99.90;;;19.85;74.75;101330.97;4200083;28;20029;-77
2022/08/30 08:19:40;;;;;;;9.10;3.10;;;20.50;99.90;;;19.94;73.79;101341.50;4201536;28;20048;-77
2022/08/30 08:21:41;;;;;;;5.70;2.55;;;20.50;99.90;;;19.96;73.57;101334.91;4200895;28;20033;-77
2022/08/30 08:23:42;;;;;;;4.95;2.35;;;20.60;99.90;;;20.21;73.81;101356.59;4183515;28;20104;-77
2022/08/30 08:25:43;;;;;;;7.38;2.90;;;20.70;99.90;;;20.06;72.79;101332.66;4183902;28;20419;-78
2022/08/30 08:27:49;;;;;;;10.07;2.60;;;20.80;99.70;;;20.20;72.47;101349.56;4200143;28;20036;-78
2022/08/30 08:29:50;;;;;;;4.95;2.55;;;20.80;99.60;;;20.24;72.13;101345.47;4217195;28;20020;-77
2022/08/30 08:31:51;;;;;;;5.60;2.00;;;20.80;99.50;;;20.20;72.82;101331.66;4201036;28;20038;-77
2022/08/30 08:33:52;;;;;;;8.18;2.42;;;20.90;99.70;;;20.29;73.43;101338.50;4201566;28;20036;-77
2022/08/30 08:35:53;;;;;;;9.13;3.47;;;20.90;99.90;;;20.34;73.02;101340.53;4201458;28;20407;-77
2022/08/30 08:37:54;;;;;;;8.00;2.90;;;21.00;99.70;;;20.46;72.73;101349.63;4200316;28;20111;-77
2022/08/30 08:39:55;;;;;;;9.05;3.15;;;21.00;99.60;;;20.46;71.36;101341.59;4200152;28;20024;-77
2022/08/30 08:42:07;;;;;;;10.18;3.33;;;21.10;99.10;;;20.64;71.04;101347.16;4200104;28;20086;-77
2022/08/30 08:44:27;;;;;;;5.57;2.85;;;21.20;99.00;;;20.64;70.78;101341.00;4183845;28;20033;-78
2022/08/30 08:46:46;;;;;;;9.55;2.95;;;21.30;98.90;;;20.68;68.84;101348.41;4188075;28;20073;-77
2022/08/30 08:48:55;;;;;;;9.27;2.70;;;21.40;98.20;;;20.88;71.84;101367.97;4203095;28;20035;-77
2022/08/30 08:53:36;;;;;;;7.63;2.45;;;21.40;99.00;;;20.87;70.50;101355.59;4203692;28;20036;-77
2022/08/30 08:55:46;;;;;;;7.72;2.47;;;21.50;98.70;;;20.86;71.25;101362.00;4188824;28;20028;-77
2022/08/30 08:57:47;;;;;;;5.25;2.42;;;21.50;99.00;;;;;;4203192;28;20017;-77
2022/08/30 08:59:48;;;;;;;4.80;2.22;;;21.60;98.90;;;21.09;70.44;101368.78;4204330;28;20380;-77
2022/08/30 09:01:49;;;;;;;9.75;3.40;;;21.60;98.70;;;21.01;70.01;101372.50;4186125;28;20559;-77
2022/08/30 09:03:51;;;;;;;5.50;2.40;;;21.60;98.40;;;20.86;69.73;101351.28;4204400;28;20052;-78
2022/08/30 09:05:53;;;;;;;6.18;2.33;;;21.60;98.20;;;20.93;68.75;101346.72;4204078;28;20016;-77
2022/08/30 09:08:04;;;;;;;6.93;2.72;;;21.70;97.90;;;21.12;68.34;101365.69;4196977;28;20032;-78
2022/08/30 09:10:06;;;;;;;10.35;3.33;;;21.70;97.80;;;21.20;68.91;101360.13;4198336;28;20028;-78